Time;durP1;ratioP1;P1;durP2;ratioP2;P2;SDS_P1;SDS_P2;PMS_P1;PMS_P2;Temp;Humidity;BMP_temperature;BMP_pressure;BME280_temperature;BME280_humidity;BME280_pressure;Samples;Min_cycle;Max_cycle;Signal;HPM_P1;HPM_P2
2023/05/08 00:01:10;;;;;;;92.13;55.75;;;19.00;83.10;;;;;;4986210;28;94151;-77
2023/05/08 00:03:35;;;;;;;94.45;57.20;;;19.00;82.90;;;;;;4990406;28;94995;-77
2023/05/08 00:06:05;;;;;;;93.20;56.53;;;18.90;82.80;;;;;;4997666;28;95206;-77
2023/05/08 00:08:31;;;;;;;92.43;56.05;;;19.00;82.80;;;;;;4992341;28;95853;-75
2023/05/08 00:10:56;;;;;;;94.50;56.13;;;19.00;82.90;;;;;;5001018;28;94919;-77
2023/05/08 00:13:22;;;;;;;93.28;56.63;;;18.90;82.80;;;;;;4996214;28;95311;-76
2023/05/08 00:15:48;;;;;;;94.63;56.47;;;19.00;82.80;;;;;;4997191;28;95662;-77
2023/05/08 00:18:14;;;;;;;92.95;56.78;;;18.90;82.80;;;;;;4985373;28;96166;-76
2023/05/08 00:20:40;;;;;;;92.80;56.10;;;19.00;82.70;;;;;;4990947;28;99593;-76
2023/05/08 00:23:06;;;;;;;93.05;56.63;;;19.00;82.70;;;;;;4988182;28;95468;-74
2023/05/08 00:25:32;;;;;;;95.20;57.03;;;18.90;82.60;;;;;;4990898;28;94364;-76
2023/05/08 00:27:58;;;;;;;95.72;56.75;;;18.90;82.50;;;;;;4994950;28;96219;-77
2023/05/08 00:30:24;;;;;;;93.05;56.78;;;18.90;82.50;;;;;;4986656;28;96113;-77
2023/05/08 00:32:49;;;;;;;93.05;56.80;;;18.90;82.60;;;;;;4997465;28;96349;-78
2023/05/08 00:35:15;;;;;;;92.95;56.35;;;18.90;82.50;;;;;;4994015;28;96376;-77
2023/05/08 00:37:42;;;;;;;94.13;56.42;;;18.90;82.50;;;;;;4995226;28;95459;-79
2023/05/08 00:40:09;;;;;;;93.47;56.47;;;18.90;82.60;;;;;;4994707;28;95737;-76
2023/05/08 00:42:34;;;;;;;93.88;57.15;;;18.90;82.50;;;;;;4994170;28;94797;-76
2023/05/08 00:45:00;;;;;;;92.90;56.67;;;18.90;82.50;;;;;;4985379;28;96363;-74
2023/05/08 00:47:25;;;;;;;92.68;56.25;;;18.90;82.50;;;;;;4992893;28;96210;-73
2023/05/08 00:49:52;;;;;;;92.30;56.28;;;18.90;82.30;;;;;;4999014;28;96515;-74
2023/05/08 00:52:18;;;;;;;94.00;56.58;;;18.90;82.40;;;;;;4995722;28;94639;-77
2023/05/08 00:54:45;;;;;;;94.15;56.63;;;18.90;82.20;;;;;;4988790;28;99521;-76
2023/05/08 00:57:11;;;;;;;93.40;56.60;;;18.80;82.20;;;;;;4993620;28;96948;-76
2023/05/08 00:59:40;;;;;;;93.28;56.55;;;18.80;82.20;;;;;;4985162;28;95347;-75
2023/05/08 01:02:07;;;;;;;93.78;57.13;;;18.90;82.50;;;;;;4990691;28;94952;-74
2023/05/08 01:04:33;;;;;;;92.68;56.10;;;18.90;82.30;;;;;;4990095;28;94730;-76
2023/05/08 01:07:00;;;;;;;92.97;56.25;;;18.90;82.40;;;;;;4995745;28;95058;-76
2023/05/08 01:09:26;;;;;;;92.38;55.63;;;18.90;82.40;;;;;;4994201;28;95222;-77
2023/05/08 01:12:13;;;;;;;95.10;57.03;;;18.80;82.50;;;;;;4974771;28;96222;-75
2023/05/08 01:15:05;;;;;;;93.63;56.70;;;18.90;82.40;;;;;;4991703;28;95433;-77
2023/05/08 01:17:39;;;;;;;92.50;56.00;;;18.80;82.40;;;;;;4985999;28;95301;-77
2023/05/08 01:20:13;;;;;;;94.57;56.63;;;18.80;82.20;;;;;;4996740;28;95681;-75
2023/05/08 01:22:48;;;;;;;93.45;56.65;;;18.80;82.30;;;;;;4994181;28;95710;-76
2023/05/08 01:25:13;;;;;;;92.60;56.50;;;18.80;82.40;;;;;;4990949;28;96174;-75
2023/05/08 01:28:17;;;;;;;94.18;56.75;;;18.80;82.30;;;;;;4988255;28;95264;-77
2023/05/08 01:31:05;;;;;;;92.35;56.38;;;18.80;82.50;;;;;;4991946;28;95228;-76
2023/05/08 01:33:48;;;;;;;93.18;56.50;;;18.80;82.40;;;;;;4988672;28;96030;-76
2023/05/08 01:36:17;;;;;;;93.05;57.13;;;18.80;82.60;;;;;;4988033;28;95229;-77
2023/05/08 01:38:54;;;;;;;92.57;56.35;;;18.80;82.50;;;;;;4993611;28;95349;-78
2023/05/08 01:41:27;;;;;;;93.97;56.63;;;18.80;82.60;;;;;;4994855;28;95007;-76
2023/05/08 01:44:01;;;;;;;93.10;56.50;;;18.80;82.50;;;;;;5010193;27;96122;-77
2023/05/08 01:46:31;;;;;;;93.35;56.50;;;18.80;82.50;;;;;;4990490;28;94877;-75
2023/05/08 01:49:10;;;;;;;92.78;56.58;;;18.80;82.50;;;;;;4986705;28;96347;-75
2023/05/08 01:51:43;;;;;;;93.40;56.63;;;18.80;82.50;;;;;;4985556;28;100007;-77
2023/05/08 01:54:15;;;;;;;93.35;56.80;;;18.70;82.50;;;;;;4994681;28;95673;-77
2023/05/08 01:56:43;;;;;;;92.85;56.55;;;18.80;83.20;;;;;;4977633;28;95167;-74
2023/05/08 01:59:11;;;;;;;95.25;57.20;;;18.80;82.70;;;;;;4984020;28;94999;-75
2023/05/08 02:01:39;;;;;;;93.50;56.70;;;18.80;82.60;;;;;;4995301;28;95373;-77
2023/05/08 02:04:05;;;;;;;94.47;56.85;;;18.80;82.70;;;;;;4985410;28;100224;-76
2023/05/08 02:06:32;;;;;;;94.07;56.78;;;18.80;82.50;;;;;;4974678;28;94963;-75
2023/05/08 02:08:59;;;;;;;93.90;57.03;;;18.70;82.50;;;;;;4967842;28;95573;-76
2023/05/08 02:11:25;;;;;;;93.60;56.72;;;18.70;82.50;;;;;;4976976;28;95257;-76
2023/05/08 02:13:52;;;;;;;95.05;56.85;;;18.70;82.50;;;;;;4973166;28;96407;-77
2023/05/08 02:16:20;;;;;;;93.63;56.75;;;18.70;82.60;;;;;;4973845;28;96850;-76
2023/05/08 02:18:51;;;;;;;92.75;57.15;;;18.70;82.60;;;;;;4965397;28;95548;-77
2023/05/08 02:21:17;;;;;;;93.33;57.33;;;18.70;82.50;;;;;;4966021;28;95331;-76
2023/05/08 02:23:45;;;;;;;93.75;56.88;;;18.70;82.50;;;;;;4985102;28;95005;-77
2023/05/08 02:26:13;;;;;;;92.82;57.03;;;18.70;82.50;;;;;;4968726;28;95357;-75
2023/05/08 02:28:40;;;;;;;94.97;57.28;;;18.70;82.50;;;;;;4965194;28;96576;-76
2023/05/08 02:31:07;;;;;;;93.53;56.88;;;18.70;82.40;;;;;;4966879;28;95554;-76
2023/05/08 02:33:33;;;;;;;94.35;56.78;;;18.70;82.50;;;;;;4971208;28;95612;-74
2023/05/08 02:36:01;;;;;;;95.00;57.53;;;18.70;82.30;;;;;;4958756;28;96126;-75
2023/05/08 02:38:29;;;;;;;94.50;57.05;;;18.70;82.30;;;;;;4964900;28;99414;-77
2023/05/08 02:40:59;;;;;;;93.75;57.25;;;18.60;82.30;;;;;;4948122;28;98440;-75
2023/05/08 02:43:25;;;;;;;93.97;56.75;;;18.60;82.30;;;;;;4960300;28;96487;-77
2023/05/08 02:46:02;;;;;;;94.35;56.67;;;18.60;82.40;;;;;;4964399;28;95092;-76
2023/05/08 02:48:36;;;;;;;94.45;57.03;;;18.70;82.30;;;;;;4974229;28;95788;-75
2023/05/08 02:51:22;;;;;;;95.70;57.60;;;18.70;82.30;;;;;;4965910;28;95288;-77
2023/05/08 02:53:55;;;;;;;94.68;57.13;;;18.60;82.20;;;;;;4970724;28;100501;-77
2023/05/08 02:56:52;;;;;;;94.68;56.97;;;18.60;82.20;;;;;;4979684;28;96140;-76
2023/05/08 02:59:41;;;;;;;94.38;57.08;;;18.60;82.20;;;;;;4952571;28;96144;-77
2023/05/08 03:02:14;;;;;;;93.93;57.22;;;18.60;82.20;;;;;;4960688;28;96552;-76
2023/05/08 03:04:55;;;;;;;93.43;57.35;;;18.60;82.10;;;;;;4978586;28;95780;-75
2023/05/08 03:07:24;;;;;;;94.13;56.85;;;18.60;82.20;;;;;;4975330;28;94913;-77
2023/05/08 03:09:55;;;;;;;93.82;56.88;;;18.60;82.40;;;;;;4964972;28;95419;-75
2023/05/08 03:12:25;;;;;;;94.03;56.83;;;18.60;82.20;;;;;;4965746;28;95538;-75
2023/05/08 03:15:08;;;;;;;93.38;56.72;;;18.60;82.10;;;;;;4958634;28;101479;-76
2023/05/08 03:17:36;;;;;;;92.85;56.60;;;18.60;82.10;;;;;;4962550;28;94951;-77
2023/05/08 03:20:04;;;;;;;95.95;56.88;;;18.60;82.10;;;;;;4967041;28;95963;-74
2023/05/08 03:22:32;;;;;;;94.43;57.45;;;18.60;82.20;;;;;;4975628;28;97359;-76
2023/05/08 03:25:01;;;;;;;92.63;56.60;;;18.60;82.10;;;;;;4980373;28;95936;-77
2023/05/08 03:27:28;;;;;;;92.78;56.88;;;18.60;82.10;;;;;;4979970;28;100343;-74
2023/05/08 03:29:55;;;;;;;93.00;56.90;;;18.60;82.10;;;;;;4978070;28;100866;-76
2023/05/08 03:32:25;;;;;;;92.72;56.63;;;18.60;81.90;;;;;;4979281;28;99545;-77
2023/05/08 03:34:51;;;;;;;93.75;57.03;;;18.60;81.90;;;;;;4985966;28;96050;-76
2023/05/08 03:37:17;;;;;;;93.68;56.95;;;18.60;81.90;;;;;;4980404;28;100406;-77
2023/05/08 03:39:43;;;;;;;93.72;57.00;;;18.50;81.80;;;;;;4996209;28;95098;-77
2023/05/08 03:42:15;;;;;;;93.18;56.50;;;18.50;81.80;;;;;;4995165;28;94804;-77
2023/05/08 03:44:41;;;;;;;93.88;56.72;;;18.50;81.90;;;;;;4992253;28;94662;-75
2023/05/08 03:47:08;;;;;;;93.03;57.30;;;18.50;81.80;;;;;;5001191;28;94987;-78
2023/05/08 03:49:36;;;;;;;94.20;57.08;;;18.50;81.80;;;;;;4994623;28;96519;-77
2023/05/08 03:52:02;;;;;;;93.82;56.88;;;18.50;81.90;;;;;;5007526;27;94766;-76
2023/05/08 03:54:29;;;;;;;93.18;56.65;;;18.50;82.00;;;;;;4994139;28;96717;-77
2023/05/08 03:56:54;;;;;;;94.65;56.97;;;18.50;82.00;;;;;;4993557;28;96501;-76
2023/05/08 03:59:31;;;;;;;92.60;56.63;;;18.50;82.00;;;;;;4996765;28;95777;-77
2023/05/08 04:02:27;;;;;;;92.20;56.83;;;18.50;81.90;;;;;;4986142;28;95277;-78
2023/05/08 04:05:23;;;;;;;96.53;57.40;;;18.50;81.90;;;;;;4993417;28;95321;-75
2023/05/08 04:07:58;;;;;;;93.65;56.95;;;18.50;81.80;;;;;;4994105;28;97059;-77
2023/05/08 04:10:27;;;;;;;93.18;56.83;;;18.50;81.70;;;;;;4992755;28;95229;-77
2023/05/08 04:13:03;;;;;;;93.95;56.75;;;18.50;81.70;;;;;;4995508;28;95551;-76
2023/05/08 04:15:32;;;;;;;92.13;56.38;;;18.50;81.80;;;;;;4996110;28;94943;-77
2023/05/08 04:18:19;;;;;;;93.25;56.53;;;18.50;81.80;;;;;;5000173;28;94830;-77
2023/05/08 04:20:48;;;;;;;93.13;56.65;;;18.50;81.70;;;;;;4993257;28;97525;-76
2023/05/08 04:23:17;;;;;;;92.47;56.28;;;18.50;81.60;;;;;;4994883;28;94890;-76
2023/05/08 04:25:44;;;;;;;91.80;56.25;;;18.50;81.70;;;;;;4989099;28;94747;-77
2023/05/08 04:28:11;;;;;;;92.72;56.08;;;18.40;81.60;;;;;;5010150;27;94675;-76
2023/05/08 04:30:38;;;;;;;93.70;56.30;;;18.50;81.70;;;;;;4999619;28;95222;-75
2023/05/08 04:33:05;;;;;;;92.28;56.50;;;18.40;81.60;;;;;;5001734;28;95750;-77
2023/05/08 04:35:32;;;;;;;92.18;55.90;;;18.50;81.60;;;;;;4994506;28;95907;-78
2023/05/08 04:37:58;;;;;;;91.57;56.33;;;18.40;81.60;;;;;;5001823;28;94012;-77
2023/05/08 04:40:24;;;;;;;91.97;56.42;;;18.50;81.50;;;;;;4988287;28;94669;-77
2023/05/08 04:42:49;;;;;;;91.68;56.13;;;18.40;81.40;;;;;;4997824;28;94718;-77
2023/05/08 04:45:15;;;;;;;93.75;56.60;;;18.40;81.40;;;;;;4989960;28;95773;-77
2023/05/08 04:47:41;;;;;;;93.15;56.55;;;18.40;81.60;;;;;;4998515;28;95030;-76
2023/05/08 04:50:07;;;;;;;92.20;56.20;;;18.40;81.50;;;;;;4992227;28;95573;-76
2023/05/08 04:52:33;;;;;;;92.22;56.63;;;18.40;81.50;;;;;;5009607;27;95474;-77
2023/05/08 04:54:58;;;;;;;91.90;55.90;;;18.40;81.50;;;;;;4992187;28;96723;-77
2023/05/08 04:57:24;;;;;;;91.40;56.03;;;18.40;81.40;;;;;;4992038;28;94982;-77
2023/05/08 04:59:50;;;;;;;92.15;55.88;;;18.40;81.50;;;;;;4991582;28;96907;-76
2023/05/08 05:02:15;;;;;;;91.35;55.92;;;18.40;81.50;;;;;;4990744;28;95309;-77
2023/05/08 05:04:41;;;;;;;92.88;55.97;;;18.40;81.50;;;;;;4995404;28;95600;-77
2023/05/08 05:07:07;;;;;;;91.97;55.92;;;18.40;81.40;;;;;;4995825;28;94497;-77
2023/05/08 05:09:36;;;;;;;91.43;55.78;;;18.40;81.40;;;;;;4995992;28;97366;-74
2023/05/08 05:12:03;;;;;;;92.53;55.83;;;18.40;81.30;;;;;;4999282;28;97768;-78
2023/05/08 05:14:29;;;;;;;91.18;55.80;;;18.40;81.40;;;;;;4989887;28;95231;-76
2023/05/08 05:16:54;;;;;;;91.50;55.88;;;18.40;81.40;;;;;;4996605;28;94736;-77
2023/05/08 05:19:20;;;;;;;90.20;55.05;;;18.40;81.40;;;;;;4999166;28;96689;-77
2023/05/08 05:21:46;;;;;;;91.45;55.88;;;18.40;81.40;;;;;;4997714;28;95731;-75
2023/05/08 05:24:11;;;;;;;92.28;55.70;;;18.30;81.20;;;;;;4990072;28;95532;-75
2023/05/08 05:26:37;;;;;;;91.53;55.13;;;18.30;81.30;;;;;;4983556;28;94068;-77
2023/05/08 05:29:03;;;;;;;90.55;55.17;;;18.30;81.30;;;;;;4991056;28;95550;-77
2023/05/08 05:31:29;;;;;;;91.20;55.67;;;18.30;81.20;;;;;;4979835;28;97176;-77
2023/05/08 05:33:55;;;;;;;90.82;55.65;;;18.30;81.50;;;;;;4990863;28;96130;-75
2023/05/08 05:36:21;;;;;;;92.03;55.97;;;18.30;81.30;;;;;;4986455;28;95182;-75
2023/05/08 05:38:47;;;;;;;90.45;55.13;;;18.30;81.20;;;;;;4998475;28;100057;-77
2023/05/08 05:41:12;;;;;;;92.40;56.05;;;18.30;81.10;;;;;;4977441;28;95260;-77
2023/05/08 05:43:38;;;;;;;91.03;55.22;;;18.30;81.20;;;;;;4989829;28;94701;-77
2023/05/08 05:46:05;;;;;;;90.75;55.47;;;18.30;81.30;;;;;;4996534;28;95387;-75
2023/05/08 05:48:31;;;;;;;92.00;56.22;;;18.30;81.30;;;;;;4993908;28;95226;-77
2023/05/08 05:50:56;;;;;;;93.38;55.72;;;18.30;81.30;;;;;;4992892;28;95526;-77
2023/05/08 05:53:22;;;;;;;91.85;55.45;;;18.30;81.30;;;;;;4992316;28;95178;-76
2023/05/08 05:55:48;;;;;;;92.53;55.05;;;18.30;81.30;;;;;;4994550;28;95938;-77
2023/05/08 05:58:14;;;;;;;92.57;55.30;;;18.30;81.60;;;;;;4984604;28;97259;-76
2023/05/08 06:00:40;;;;;;;90.35;55.08;;;18.30;81.20;;;;;;4962281;28;96302;-73
2023/05/08 06:03:06;;;;;;;91.13;55.53;;;18.30;81.40;;;;;;4984418;28;96507;-74
2023/05/08 06:05:31;;;;;;;90.05;54.80;;;18.30;81.40;;;;;;4983176;28;94774;-74
2023/05/08 06:07:57;;;;;;;92.75;55.42;;;18.30;81.40;;;;;;4977964;28;95713;-77
2023/05/08 06:10:22;;;;;;;91.78;55.55;;;18.30;81.50;;;;;;4976097;28;95638;-76
2023/05/08 06:12:48;;;;;;;92.35;55.25;;;18.30;81.40;;;;;;4978811;28;94837;-75
2023/05/08 06:15:14;;;;;;;93.82;55.15;;;18.30;81.60;;;;;;4979188;28;95365;-75
2023/05/08 06:17:40;;;;;;;91.78;55.53;;;18.30;81.70;;;;;;4987050;28;94862;-75
2023/05/08 06:20:07;;;;;;;92.38;55.35;;;18.30;81.70;;;;;;4994933;28;94959;-76
2023/05/08 06:22:33;;;;;;;92.65;55.17;;;18.30;81.70;;;;;;4993116;28;95872;-75
2023/05/08 06:24:58;;;;;;;91.38;55.03;;;18.30;81.80;;;;;;4990299;28;96793;-77
2023/05/08 06:27:24;;;;;;;92.15;55.10;;;18.30;81.80;;;;;;4993530;28;95775;-76
2023/05/08 06:29:51;;;;;;;90.95;54.75;;;18.30;81.80;;;;;;4996073;28;95148;-77
2023/05/08 06:32:18;;;;;;;93.35;55.17;;;18.30;81.70;;;;;;4994946;28;95378;-77
2023/05/08 06:34:44;;;;;;;91.50;54.97;;;18.30;81.50;;;;;;4997775;28;95362;-78
2023/05/08 06:37:10;;;;;;;91.38;55.08;;;18.30;81.40;;;;;;4988593;28;95372;-76
2023/05/08 06:39:35;;;;;;;90.38;54.80;;;18.30;82.20;;;;;;4985284;28;94692;-73
2023/05/08 06:42:01;;;;;;;91.60;55.38;;;18.30;81.60;;;;;;4990062;28;96105;-73
2023/05/08 06:44:27;;;;;;;95.68;55.53;;;18.30;81.70;;;;;;4989168;28;95120;-77
2023/05/08 06:46:52;;;;;;;90.78;54.83;;;18.20;81.50;;;;;;4991239;28;97010;-77
2023/05/08 06:49:18;;;;;;;95.10;55.75;;;18.20;81.40;;;;;;4994201;28;95040;-77
2023/05/08 06:51:44;;;;;;;92.28;55.15;;;18.30;81.60;;;;;;4993338;28;95382;-78
2023/05/08 06:54:09;;;;;;;93.93;55.30;;;18.30;81.60;;;;;;5001411;28;95506;-76
2023/05/08 06:56:35;;;;;;;91.00;54.72;;;18.20;81.50;;;;;;4983912;28;95006;-77
2023/05/08 06:59:01;;;;;;;91.97;54.88;;;18.30;81.70;;;;;;4990711;28;96102;-77
2023/05/08 07:01:26;;;;;;;92.45;55.05;;;18.30;81.60;;;;;;4993673;28;95129;-77
2023/05/08 07:03:52;;;;;;;90.25;54.72;;;18.30;81.40;;;;;;4992880;28;95919;-75
2023/05/08 07:06:18;;;;;;;93.95;55.35;;;18.30;81.50;;;;;;5000435;28;95309;-78
2023/05/08 07:08:43;;;;;;;92.35;54.97;;;18.30;81.40;;;;;;4994031;28;95093;-78
2023/05/08 07:11:09;;;;;;;91.60;55.22;;;18.30;81.60;;;;;;4995746;28;97792;-77
2023/05/08 07:13:35;;;;;;;90.35;55.15;;;18.30;81.50;;;;;;4998134;28;95019;-75
2023/05/08 07:16:01;;;;;;;89.90;54.63;;;18.30;82.20;;;;;;4996024;28;96568;-76
2023/05/08 07:18:26;;;;;;;90.63;54.83;;;18.30;81.50;;;;;;4999473;28;95316;-77
2023/05/08 07:20:52;;;;;;;90.82;55.10;;;18.30;81.40;;;;;;4996334;28;95567;-76
2023/05/08 07:23:18;;;;;;;90.72;54.65;;;18.20;81.30;;;;;;4993776;28;94666;-77
2023/05/08 07:25:44;;;;;;;91.47;54.65;;;18.30;81.30;;;;;;4994885;28;95479;-76
2023/05/08 07:28:10;;;;;;;91.22;55.15;;;18.30;81.30;;;;;;4999116;28;94663;-77
2023/05/08 07:30:36;;;;;;;93.50;55.58;;;18.20;81.30;;;;;;4993666;28;95087;-77
2023/05/08 07:33:02;;;;;;;91.93;54.80;;;18.30;81.40;;;;;;4996722;28;94703;-77
2023/05/08 07:35:28;;;;;;;89.78;54.92;;;18.30;81.30;;;;;;4993057;28;97516;-77
2023/05/08 07:37:54;;;;;;;90.85;54.65;;;18.30;81.20;;;;;;4991763;28;95324;-77
2023/05/08 07:40:19;;;;;;;91.20;54.83;;;18.20;81.10;;;;;;4988863;28;96735;-77
2023/05/08 07:42:45;;;;;;;89.63;54.50;;;18.30;81.10;;;;;;4996056;28;94657;-77
2023/05/08 07:45:12;;;;;;;91.13;55.03;;;18.20;81.10;;;;;;4997799;28;95286;-77
2023/05/08 07:48:04;;;;;;;90.03;54.50;;;18.30;81.20;;;;;;4996326;28;94617;-76
2023/05/08 07:50:30;;;;;;;90.78;55.10;;;18.30;81.10;;;;;;4989122;27;95405;-76
2023/05/08 07:52:55;;;;;;;91.20;55.05;;;18.30;81.00;;;;;;4994481;28;95037;-77
2023/05/08 07:55:21;;;;;;;90.40;55.22;;;18.30;81.00;;;;;;4995760;28;94944;-77
2023/05/08 07:57:47;;;;;;;90.63;55.03;;;18.30;81.00;;;;;;4999298;28;95158;-77
2023/05/08 08:00:14;;;;;;;90.88;54.85;;;18.30;81.00;;;;;;4997276;28;96018;-76
2023/05/08 08:02:40;;;;;;;90.88;54.78;;;18.30;81.00;;;;;;4996528;28;95570;-78
2023/05/08 08:05:07;;;;;;;90.95;54.88;;;18.20;80.90;;;;;;4983487;28;95966;-74
2023/05/08 08:07:32;;;;;;;91.10;55.55;;;18.30;80.90;;;;;;4987841;28;97152;-75
2023/05/08 08:09:59;;;;;;;91.88;55.25;;;18.30;80.90;;;;;;4985522;28;94873;-75
2023/05/08 08:12:25;;;;;;;90.20;54.92;;;18.30;81.00;;;;;;5019039;27;95197;-76
2023/05/08 08:14:51;;;;;;;90.63;54.90;;;18.30;80.90;;;;;;4993691;28;95178;-76
2023/05/08 08:17:16;;;;;;;91.97;55.13;;;18.30;80.90;;;;;;4992691;28;94892;-76
2023/05/08 08:19:42;;;;;;;93.40;55.45;;;18.30;80.90;;;;;;4994648;28;96148;-77
2023/05/08 08:22:08;;;;;;;92.32;55.53;;;18.30;80.80;;;;;;4991437;28;95448;-76
2023/05/08 08:24:34;;;;;;;92.40;55.17;;;18.30;80.90;;;;;;4990053;28;96403;-73
2023/05/08 08:26:59;;;;;;;92.20;55.53;;;18.30;81.10;;;;;;4992822;28;97870;-76
2023/05/08 08:29:25;;;;;;;92.22;55.63;;;18.30;81.10;;;;;;4992818;28;95238;-75
2023/05/08 08:31:51;;;;;;;91.43;55.25;;;18.30;81.10;;;;;;4990782;28;94962;-75
2023/05/08 08:34:17;;;;;;;91.35;55.53;;;18.30;81.10;;;;;;4996990;28;95400;-74
2023/05/08 08:36:42;;;;;;;93.10;55.58;;;18.30;81.10;;;;;;5001714;28;94741;-75
2023/05/08 08:39:08;;;;;;;91.32;55.35;;;18.30;81.20;;;;;;5001558;28;95147;-75
2023/05/08 08:41:34;;;;;;;92.47;55.13;;;18.30;81.20;;;;;;4981145;28;94346;-74
2023/05/08 08:44:00;;;;;;;93.28;55.42;;;18.30;81.00;;;;;;4993280;28;95267;-74
2023/05/08 08:46:27;;;;;;;92.15;55.42;;;18.30;81.10;;;;;;4982763;28;98409;-74
2023/05/08 08:48:55;;;;;;;92.15;55.15;;;18.30;81.20;;;;;;4993717;28;95776;-75
2023/05/08 08:51:30;;;;;;;91.72;55.03;;;18.30;81.00;;;;;;4988087;28;95087;-74
2023/05/08 08:54:12;;;;;;;91.70;55.10;;;18.30;81.20;;;;;;5006596;27;97329;-76
2023/05/08 08:56:41;;;;;;;92.20;55.05;;;18.30;81.20;;;;;;4989182;28;97205;-76
2023/05/08 08:59:08;;;;;;;90.63;55.22;;;18.30;81.40;;;;;;4986185;28;95863;-77
2023/05/08 09:01:37;;;;;;;91.45;55.42;;;18.30;81.10;;;;;;4985175;28;95344;-73
2023/05/08 09:04:04;;;;;;;92.07;55.35;;;18.40;81.30;;;;;;5002382;28;95012;-75
2023/05/08 09:06:30;;;;;;;91.95;55.40;;;18.40;81.30;;;;;;4992078;28;98209;-75
2023/05/08 09:08:56;;;;;;;91.68;55.53;;;18.40;81.20;;;;;;4986695;28;95824;-73
2023/05/08 09:11:23;;;;;;;91.78;55.63;;;18.40;81.20;;;;;;4983344;28;95997;-73
2023/05/08 09:13:49;;;;;;;92.47;55.13;;;18.40;81.50;;;;;;4985342;28;96551;-74
2023/05/08 09:16:15;;;;;;;91.53;55.60;;;18.40;81.70;;;;;;4983151;28;99484;-74
2023/05/08 09:18:40;;;;;;;92.05;55.50;;;18.30;81.60;;;;;;4978735;28;95473;-73
2023/05/08 09:21:06;;;;;;;97.88;56.67;;;18.40;81.80;;;;;;4980339;27;95492;-72
2023/05/08 09:23:34;;;;;;;121.40;60.80;;;18.40;82.10;;;;;;4978478;28;98787;-75
2023/05/08 09:26:00;;;;;;;110.53;59.78;;;18.40;82.80;;;;;;4968593;28;96438;-72
2023/05/08 09:28:26;;;;;;;105.82;58.28;;;18.40;82.90;;;;;;4973070;28;102932;-70
2023/05/08 09:30:58;;;;;;;103.25;58.33;;;18.40;83.20;;;;;;4975182;28;96308;-72
2023/05/08 09:33:26;;;;;;;106.72;58.70;;;18.40;83.10;;;;;;4980053;28;96901;-73
2023/05/08 09:35:53;;;;;;;117.63;59.85;;;18.40;83.10;;;;;;4966424;28;96134;-74
2023/05/08 09:38:36;;;;;;;111.63;58.85;;;18.50;83.50;;;;;;4958028;28;97694;-72
2023/05/08 09:41:15;;;;;;;111.20;58.83;;;18.50;83.60;;;;;;4958337;28;99950;-71
2023/05/08 09:43:58;;;;;;;108.13;59.10;;;18.40;83.50;;;;;;4962432;28;95462;-72
2023/05/08 09:46:26;;;;;;;108.25;60.17;;;18.40;83.20;;;;;;4975111;28;96018;-71
2023/05/08 09:48:56;;;;;;;109.35;59.47;;;18.50;83.30;;;;;;4960426;28;100991;-68
2023/05/08 09:51:23;;;;;;;112.50;60.00;;;18.50;83.20;;;;;;4975449;28;96642;-72
2023/05/08 09:53:51;;;;;;;113.95;60.55;;;18.50;83.30;;;;;;4973346;28;96215;-72
2023/05/08 09:56:37;;;;;;;118.10;61.10;;;18.50;83.40;;;;;;4980850;28;95233;-70
2023/05/08 09:59:20;;;;;;;112.05;60.75;;;18.50;83.30;;;;;;4985645;28;95249;-73
2023/05/08 10:01:47;;;;;;;113.90;61.28;;;18.50;83.60;;;;;;4987753;28;95567;-73
2023/05/08 10:04:13;;;;;;;109.40;60.20;;;18.40;83.20;;;;;;4990709;28;98264;-71
2023/05/08 10:06:39;;;;;;;118.28;60.40;;;18.50;83.10;;;;;;4987725;28;96054;-72
2023/05/08 10:09:13;;;;;;;109.95;59.85;;;18.50;83.20;;;;;;4984769;28;95937;-76
2023/05/08 10:11:51;;;;;;;107.30;60.33;;;18.50;83.00;;;;;;4996536;28;95378;-76
2023/05/08 10:14:17;;;;;;;110.70;60.58;;;18.50;83.20;;;;;;5004173;22;101370;-53
2023/05/08 10:16:45;;;;;;;116.85;61.63;;;18.50;83.80;;;;;;4989901;28;95918;-54
2023/05/08 10:19:16;;;;;;;112.50;60.83;;;18.50;83.80;;;;;;4993082;28;95031;-47
2023/05/08 10:21:52;;;;;;;119.30;61.60;;;18.50;83.90;;;;;;4995846;28;94048;-54
2023/05/08 10:24:30;;;;;;;115.75;60.67;;;18.50;83.70;;;;;;4987935;28;94700;-54
2023/05/08 10:27:29;;;;;;;116.22;60.72;;;18.50;83.70;;;;;;4982218;28;96341;-49
2023/05/08 10:30:00;;;;;;;112.32;60.85;;;18.50;84.10;;;;;;4981906;28;96762;-51
2023/05/08 10:32:30;;;;;;;106.65;59.22;;;18.60;84.10;;;;;;4976746;28;94923;-46
2023/05/08 10:34:58;;;;;;;113.85;59.55;;;18.60;84.00;;;;;;4994694;28;95061;-49
2023/05/08 10:37:26;;;;;;;112.47;60.40;;;18.60;84.20;;;;;;4979335;28;95735;-49
2023/05/08 10:39:54;;;;;;;109.57;59.00;;;18.60;84.20;;;;;;4964994;28;96245;-45
2023/05/08 10:42:21;;;;;;;104.32;59.28;;;18.60;83.60;;;;;;4971696;28;96101;-47
2023/05/08 10:44:47;;;;;;;107.45;58.75;;;18.60;83.80;;;;;;4989906;28;95147;-46
2023/05/08 10:47:26;;;;;;;104.65;59.13;;;18.60;83.70;;;;;;4992270;28;94121;-49
2023/05/08 10:49:55;;;;;;;106.18;59.13;;;18.60;83.50;;;;;;4994855;28;94659;-49
2023/05/08 10:52:41;;;;;;;104.07;59.00;;;18.60;83.50;;;;;;4993418;28;94705;-47
2023/05/08 10:55:23;;;;;;;108.90;59.13;;;18.60;83.30;;;;;;4992416;28;95716;-46
2023/05/08 10:58:13;;;;;;;106.13;59.42;;;18.60;83.20;;;;;;4993962;28;94984;-46
2023/05/08 11:00:51;;;;;;;101.35;58.70;;;18.60;83.10;;;;;;4988637;28;94563;-46
2023/05/08 11:03:18;;;;;;;101.65;58.55;;;18.60;83.00;;;;;;4994266;28;94781;-49
2023/05/08 11:05:49;;;;;;;104.65;58.47;;;18.60;82.90;;;;;;4995523;28;95382;-47
2023/05/08 11:08:23;;;;;;;103.85;57.97;;;18.60;82.80;;;;;;4990990;28;95307;-49
2023/05/08 11:11:00;;;;;;;102.53;58.40;;;18.60;82.90;;;;;;4992117;28;95344;-46
2023/05/08 11:13:33;;;;;;;103.80;58.28;;;18.60;82.70;;;;;;4996787;28;94114;-46
2023/05/08 11:15:59;;;;;;;103.25;58.47;;;18.60;82.70;;;;;;4994231;28;95258;-50
2023/05/08 11:18:26;;;;;;;109.60;58.47;;;18.60;82.60;;;;;;4993305;28;94718;-49
2023/05/08 11:21:19;;;;;;;103.10;58.53;;;18.70;82.70;;;;;;4991222;28;96475;-47
2023/05/08 11:23:56;;;;;;;101.45;57.85;;;18.70;82.50;;;;;;4991940;28;95489;-46
2023/05/08 11:26:38;;;;;;;99.07;57.78;;;18.70;82.50;;;;;;4962213;28;99008;-47
2023/05/08 11:29:15;;;;;;;105.65;57.88;;;18.70;82.50;;;;;;4994204;28;96078;-49
2023/05/08 11:31:49;;;;;;;106.65;58.20;;;18.70;82.60;;;;;;4978247;28;95525;-51
2023/05/08 11:34:42;;;;;;;100.47;57.72;;;18.70;82.40;;;;;;4992994;28;94815;-50
2023/05/08 11:37:17;;;;;;;102.35;57.10;;;18.70;82.10;;;;;;4993923;28;95215;-46
2023/05/08 11:39:44;;;;;;;98.68;57.50;;;18.70;81.80;;;;;;4989923;28;95458;-47
2023/05/08 11:42:25;;;;;;;102.47;57.90;;;18.70;81.80;;;;;;4995485;28;95304;-49
2023/05/08 11:45:06;;;;;;;101.20;57.53;;;18.70;81.80;;;;;;4994054;28;95335;-46
2023/05/08 11:47:43;;;;;;;103.57;56.78;;;18.70;81.80;;;;;;4985373;28;97356;-47
2023/05/08 11:50:10;;;;;;;100.15;56.83;;;18.70;81.70;;;;;;4962054;28;95910;-46
2023/05/08 11:52:39;;;;;;;100.32;57.60;;;18.70;81.80;;;;;;4995230;28;95111;-45
2023/05/08 11:55:09;;;;;;;101.13;57.88;;;18.70;81.80;;;;;;4980111;28;95000;-47
2023/05/08 11:57:35;;;;;;;97.22;57.22;;;18.70;81.90;;;;;;4991667;28;94838;-48
2023/05/08 12:00:07;;;;;;;96.93;57.40;;;18.70;82.20;;;;;;4963855;28;95812;-47
2023/05/08 12:02:41;;;;;;;100.22;57.28;;;18.70;81.70;;;;;;4972166;28;96201;-45
2023/05/08 12:05:09;;;;;;;107.45;57.35;;;18.80;81.60;;;;;;4988473;28;95153;-49
2023/05/08 12:07:45;;;;;;;100.13;57.72;;;18.80;81.50;;;;;;4997861;28;95262;-44
2023/05/08 12:10:20;;;;;;;102.20;58.22;;;18.80;81.70;;;;;;4980342;28;95673;-46
2023/05/08 12:12:47;;;;;;;102.88;58.03;;;18.80;81.90;;;;;;4968491;28;95992;-43
2023/05/08 12:15:14;;;;;;;100.53;57.92;;;18.80;81.90;;;;;;4992416;28;98031;-55
2023/05/08 12:17:40;;;;;;;99.70;57.90;;;18.80;81.80;;;;;;4980015;28;96023;-50
2023/05/08 12:20:17;;;;;;;104.63;57.83;;;18.80;82.10;;;;;;4972276;28;94747;-47
2023/05/08 12:22:51;;;;;;;103.85;57.83;;;18.80;82.20;;;;;;4957477;28;95455;-49
2023/05/08 12:25:17;;;;;;;104.97;57.40;;;18.80;82.10;;;;;;4977115;28;95110;-51
2023/05/08 12:27:44;;;;;;;98.20;56.65;;;18.80;81.90;;;;;;4988461;28;95477;-53
2023/05/08 12:30:12;;;;;;;97.85;57.35;;;18.80;82.00;;;;;;4980966;28;96704;-48
2023/05/08 12:32:41;;;;;;;100.15;57.45;;;18.80;82.10;;;;;;4979704;28;100380;-48
2023/05/08 12:35:08;;;;;;;101.78;57.22;;;18.80;82.00;;;;;;4965925;28;97070;-46